• Join FlightAware (Why Join?)
  • Login
  • US Flag 
 
07:22AM EST


 

Airport Tracker/Info


-or-


 

Live Flight TrackerFlight Track Log ✈ EJA820 ✈ 28-Apr-2013 ✈ KSGJ - KFXE

Flight Track Log - Related Links

Times and Time Zones

All times are in EDT time to prevent confusion due to time zone crossing. See the EJA820 flight status page for this flight to view local times or setup timezone preferences in your user account.

Time Position Orientation Groundspeed Altitude Reporting Facility
EDT Latitude Longitude Course Direction KTS MPH feet Rate Location/Type
11:14AM 29.9542 -81.3319 57° Northeast 231 266 500  Level Jacksonville Center
11:15AM 29.9789 -81.2883 57° Northeast 213 245 2,400 2,160 Climbing Jacksonville Center
11:15AM 30.0078 -81.2686 31° Northeast 202 232 3,600 2,940 Climbing Jacksonville Center
11:16AM 30.0242 -81.2419 55° Northeast 233 268 5,400 2,280 Climbing Jacksonville Center
11:16AM 30.0339 -81.2011 75° East 259 298 5,900 1,560 Climbing Jacksonville Center
11:17AM 29.9914 -81.1419 130° Southeast 255 293 7,800 2,580 Climbing Jacksonville Center
11:18AM 29.9222 -81.1097 158° South 243 280 11,100 2,700 Climbing Jacksonville Center
11:19AM 29.8408 -81.1133 182° South 249 287 13,200 2,040 Climbing Jacksonville Center
11:20AM 29.7608 -81.0814 161° South 279 321 15,200 1,980 Climbing Jacksonville Center
11:21AM 29.6789 -81.0328 153° Southeast 307 353 17,200 1,800 Climbing Jacksonville Center
11:22AM 29.5925 -80.9819 153° Southeast 323 372 18,900 2,040 Climbing Jacksonville Center
11:23AM 29.5103 -80.9311 152° Southeast 329 379 21,300 2,100 Climbing Jacksonville Center
11:25AM 29.3286 -80.8261 153° Southeast 342 394 25,700 1,860 Climbing Miami Center
11:26AM 29.2403 -80.7731 152° Southeast 342 394 27,400 1,260 Climbing Miami Center
11:27AM 29.1500 -80.7175 152° Southeast 347 399 28,300 780 Climbing Miami Center
11:28AM 29.0494 -80.6594 153° Southeast 371 427 29,000 300 Climbing Miami Center
11:29AM 28.9447 -80.5967 152° Southeast 404 465 29,000  Level Miami Center
11:30AM 28.8358 -80.5361 154° Southeast 430 495 29,000  Level Miami Center
11:31AM 28.7347 -80.4878 157° South 440 506 29,000  Level Miami Center
11:32AM 28.6194 -80.4297 156° South 445 512 29,000  Level Miami Center
11:33AM 28.4936 -80.3667 156° South 445 512 29,000 -840 Level Miami Center
11:34AM 28.3781 -80.3086 156° South 451 519 27,400 -2,040 Descending Miami Center
11:35AM 28.2689 -80.2533 156° South 451 519 25,000 -1,740 Descending Miami Center
11:36AM 28.1781 -80.2061 155° Southeast 419 482 24,000 -540 Descending Miami Center
11:37AM 28.0708 -80.1558 158° South 413 475 24,000  Level Miami Center
11:38AM 27.9594 -80.0983 155° Southeast 413 475 24,000  Level Miami Center
11:39AM 27.8747 -80.0561 156° South 413 475 24,000  Level Miami Center
11:40AM 27.7592 -79.9989 156° South 413 475 24,000  Level Miami Center
11:41AM 27.6536 -79.9467 156° South 413 475 24,000  Level Miami Center
11:42AM 27.5506 -79.8947 156° South 413 475 24,000  Level Miami Center
11:43AM 27.4389 -79.8403 157° South 408 470 24,000 -660 Level Miami Center
11:44AM 27.3356 -79.7886 156° South 408 470 22,700 -2,100 Descending Miami Center
11:45AM 27.2442 -79.7583 164° South 395 455 19,900 -2,460 Descending Miami Center
11:46AM 27.1406 -79.7253 164° South 383 441 17,800 -2,220 Descending Miami Center
11:47AM 27.0389 -79.6925 164° South 363 418 15,500 -1,800 Descending Miami Center
11:48AM 26.9475 -79.6647 165° South 354 407 14,300 -1,200 Descending Miami Center
11:49AM 26.8539 -79.6439 169° South 354 407 13,200 -1,500 Descending Miami Center
11:50AM 26.7633 -79.6789 199° South 331 381 11,400 -1,980 Descending Miami Center
11:51AM 26.7233 -79.6989 204° Southwest 316 364 10,300 -2,100 Descending Miami Center
11:51AM 26.6981 -79.7097 201° Southwest 311 358 9,300 -2,220 Descending Miami Center
11:52AM 26.6642 -79.7278 205° Southwest 268 308 8,500 -1,320 Descending Miami Center
11:52AM 26.6200 -79.7475 202° Southwest 284 327 8,000 -420 Descending Miami Center
11:53AM 26.5800 -79.7675 204° Southwest 280 322 8,000  Level Miami Center
11:53AM 26.5547 -79.7783 201° Southwest 284 327 8,000  Level Miami Center
11:54AM 26.5125 -79.7983 203° Southwest 281 323 8,000  Level Miami Center
11:54AM 26.4744 -79.8136 200° South 278 320 8,000  Level Miami Center
11:55AM 26.4322 -79.8356 205° Southwest 278 320 8,000  Level Miami Center
11:55AM 26.4050 -79.8489 204° Southwest 278 320 8,000 -120 Level Miami Center
11:56AM 26.3750 -79.8761 219° Southwest 282 325 7,900 -720 Descending Miami Center
11:56AM 26.3617 -79.9150 249° West 262 302 7,300 -1,260 Descending Miami Center
11:57AM 26.3419 -79.9656 246° West 279 321 6,500 -1,320 Descending Miami Center
11:57AM 26.3308 -79.9953 247° West 272 313 6,000 -1,440 Descending Miami Center
11:58AM 26.3172 -80.0367 250° West 258 297 5,200 -1,740 Descending Miami Center
11:58AM 26.3083 -80.0667 252° West 262 302 4,300 -1,800 Descending Miami Center
11:59AM 26.2950 -80.1056 249° West 234 269 3,400 -1,620 Descending Miami Center
11:59AM 26.2858 -80.1356 251° West 251 289 2,700 -1,380 Descending Miami Center
12:00PM 26.2725 -80.1769 250° West 225 259 2,000 -1,020 Descending Miami Center
12:00PM 26.2636 -80.1975 244° Southwest 233 268 1,700 -660 Descending Miami Center
12:01PM 26.2383 -80.2131 209° Southwest 146 168 1,300 -600 Descending Miami Center
12:02PM 26.2050 -80.2075 171° South 132 152 800 -600 Descending Miami Center
12:04PM 26.1973 -80.1707 90° East  Level Estimated
12:11PM 26.1973 -80.1707 90° East  Level Estimated